createdAt,value
2022-10-05T00:00:59.213Z,7.00
2022-10-05T00:03:33.605Z,8.37
2022-10-05T00:06:00.848Z,8.53
2022-10-05T00:08:32.614Z,9.07
2022-10-05T00:10:59.766Z,7.80
2022-10-05T00:13:30.019Z,8.60
2022-10-05T00:16:08.547Z,9.17
2022-10-05T00:18:35.548Z,7.90
2022-10-05T00:21:02.960Z,9.87
2022-10-05T00:23:31.796Z,7.83
2022-10-05T00:26:12.649Z,7.50
2022-10-05T00:28:41.458Z,7.83
2022-10-05T00:31:19.282Z,7.47
2022-10-05T00:33:46.992Z,7.23
2022-10-05T00:36:15.022Z,7.37
2022-10-05T00:38:42.914Z,8.13
2022-10-05T00:41:27.031Z,8.57
2022-10-05T00:44:26.750Z,8.23
2022-10-05T00:47:12.243Z,7.30
2022-10-05T00:49:53.864Z,9.97
2022-10-05T00:52:38.990Z,8.30
2022-10-05T00:55:12.094Z,8.80
2022-10-05T00:58:02.291Z,8.90
2022-10-05T01:00:33.299Z,7.10
2022-10-05T01:03:08.202Z,9.40
2022-10-05T01:05:46.940Z,10.53
2022-10-05T01:08:29.274Z,10.10
2022-10-05T01:10:59.374Z,8.50
2022-10-05T01:13:37.273Z,8.30
2022-10-05T01:16:14.690Z,7.40
2022-10-05T01:18:44.565Z,8.23
2022-10-05T01:21:20.681Z,8.10
2022-10-05T01:23:59.550Z,9.50
2022-10-05T01:26:42.899Z,9.67
2022-10-05T01:29:23.172Z,8.90
2022-10-05T01:32:07.174Z,7.80
2022-10-05T01:34:52.948Z,8.50
2022-10-05T01:37:29.145Z,7.87
2022-10-05T01:40:07.954Z,7.70
2022-10-05T01:42:49.694Z,9.00
2022-10-05T01:45:32.474Z,8.70
2022-10-05T01:48:19.828Z,8.40
2022-10-05T01:51:08.372Z,9.20
2022-10-05T01:53:58.148Z,9.30
2022-10-05T01:57:05.297Z,8.70
2022-10-05T02:00:00.998Z,9.30
2022-10-05T02:02:31.958Z,7.40
2022-10-05T02:05:11.362Z,10.00
2022-10-05T02:08:02.067Z,8.63
2022-10-05T02:10:38.491Z,9.90
2022-10-05T02:13:13.693Z,8.77
2022-10-05T02:15:49.992Z,10.07
2022-10-05T02:18:50.521Z,9.10
2022-10-05T02:21:19.239Z,7.50
2022-10-05T02:23:48.649Z,9.27
2022-10-05T02:26:17.711Z,9.40
2022-10-05T02:28:54.278Z,9.53
2022-10-05T02:31:50.634Z,8.10
2022-10-05T02:34:36.551Z,8.97
2022-10-05T02:37:32.052Z,9.17
2022-10-05T02:40:19.987Z,9.70
2022-10-05T02:42:56.175Z,8.50
2022-10-05T02:45:32.903Z,9.03
2022-10-05T02:48:14.820Z,8.63
2022-10-05T02:50:54.066Z,9.73
2022-10-05T02:53:33.114Z,9.83
2022-10-05T02:56:07.717Z,8.70
2022-10-05T02:59:33.992Z,10.37
2022-10-05T03:02:14.965Z,8.80
2022-10-05T03:04:59.451Z,9.63
2022-10-05T03:07:33.698Z,8.97
2022-10-05T03:10:06.867Z,9.93
2022-10-05T03:12:54.137Z,10.73
2022-10-05T03:15:33.288Z,8.57
2022-10-05T03:18:19.163Z,9.23
2022-10-05T03:21:09.554Z,9.13
2022-10-05T03:23:54.781Z,8.70
2022-10-05T03:26:45.835Z,8.40
2022-10-05T03:29:37.724Z,9.40
2022-10-05T03:32:31.579Z,8.90
2022-10-05T03:35:04.745Z,8.33
2022-10-05T03:38:12.301Z,9.93
2022-10-05T03:40:47.404Z,10.30
2022-10-05T03:43:23.022Z,10.07
2022-10-05T03:45:52.968Z,8.93
2022-10-05T03:48:56.066Z,9.00
2022-10-05T03:51:42.049Z,10.77
2022-10-05T03:54:18.161Z,128.17
2022-10-05T03:57:19.912Z,78.13
2022-10-05T04:00:18.046Z,55.80
2022-10-05T04:02:58.132Z,45.73
2022-10-05T04:05:37.052Z,40.97
2022-10-05T04:08:18.415Z,27.07
2022-10-05T04:10:56.117Z,27.80
2022-10-05T04:13:51.449Z,22.37
2022-10-05T04:16:36.346Z,21.10
2022-10-05T04:19:16.098Z,14.10
2022-10-05T04:21:59.444Z,14.53
2022-10-05T04:24:48.337Z,13.90
2022-10-05T04:27:42.087Z,13.70
2022-10-05T04:30:17.481Z,12.10
2022-10-05T04:32:45.616Z,10.17
2022-10-05T04:35:54.311Z,12.27
2022-10-05T04:38:43.114Z,10.03
2022-10-05T04:41:24.922Z,8.70
2022-10-05T04:44:18.799Z,9.50
2022-10-05T04:47:04.128Z,9.63
2022-10-05T04:49:50.055Z,8.80
2022-10-05T04:52:44.628Z,9.80
2022-10-05T04:55:33.050Z,10.10
2022-10-05T04:58:30.502Z,8.37
2022-10-05T05:01:34.384Z,7.47
2022-10-05T05:04:18.517Z,7.43
2022-10-05T05:07:00.501Z,8.27
2022-10-05T05:10:01.369Z,8.27
2022-10-05T05:12:58.238Z,7.10
2022-10-05T05:15:46.719Z,7.20
2022-10-05T05:18:34.257Z,7.70
2022-10-05T05:21:19.576Z,7.10
2022-10-05T05:24:10.842Z,5.90
2022-10-05T05:26:55.892Z,7.93
2022-10-05T05:29:47.153Z,6.70
2022-10-05T05:32:43.091Z,6.90
2022-10-05T05:35:55.655Z,6.50
2022-10-05T05:38:37.057Z,7.07
2022-10-05T05:41:32.618Z,6.23
2022-10-05T05:44:20.132Z,6.43
2022-10-05T05:47:22.009Z,5.80
2022-10-05T05:50:09.514Z,6.40
2022-10-05T05:52:51.060Z,6.43
2022-10-05T05:55:34.387Z,6.60
2022-10-05T05:58:15.204Z,6.17
2022-10-05T06:00:58.397Z,6.03
2022-10-05T06:03:46.556Z,6.77
2022-10-05T06:06:17.997Z,5.90
2022-10-05T06:08:50.119Z,6.47
2022-10-05T06:11:41.188Z,6.67
2022-10-05T06:14:25.235Z,7.00
2022-10-05T06:16:56.615Z,6.87
2022-10-05T06:19:25.346Z,6.80
2022-10-05T06:21:52.429Z,6.10
2022-10-05T06:24:27.475Z,5.63
2022-10-05T06:27:23.742Z,6.00
2022-10-05T06:30:02.865Z,6.53
2022-10-05T06:32:57.062Z,7.10
2022-10-05T06:35:42.610Z,6.23
2022-10-05T06:38:31.408Z,5.33
2022-10-05T06:41:34.343Z,6.80
2022-10-05T06:44:21.553Z,7.00
2022-10-05T06:47:06.181Z,6.90
2022-10-05T06:49:53.136Z,6.53
2022-10-05T06:52:47.633Z,6.77
2022-10-05T06:55:29.733Z,6.43
2022-10-05T06:58:23.326Z,6.20
2022-10-05T07:01:15.539Z,5.97
2022-10-05T07:04:00.404Z,5.40
2022-10-05T07:06:53.196Z,5.70
2022-10-05T07:09:49.613Z,6.47
2022-10-05T07:12:22.781Z,6.57
2022-10-05T07:15:07.835Z,6.90
2022-10-05T07:17:51.261Z,6.57
2022-10-05T07:20:31.734Z,6.33
2022-10-05T07:23:05.341Z,6.63
2022-10-05T07:26:00.440Z,6.70
2022-10-05T07:29:05.070Z,6.23
2022-10-05T07:31:40.299Z,6.80
2022-10-05T07:34:20.744Z,6.80
2022-10-05T07:37:14.055Z,5.93
2022-10-05T07:40:06.653Z,7.23
